Time;durP1;ratioP1;P1;durP2;ratioP2;P2;SDS_P1;SDS_P2;PMS_P1;PMS_P2;Temp;Humidity;BMP_temperature;BMP_pressure;BME280_temperature;BME280_humidity;BME280_pressure;Samples;Min_cycle;Max_cycle;Signal;HPM_P1;HPM_P2
2022/09/11 00:01:32;;;;;;;6.75;6.07;;;;;;;14.52;88.32;98684.34;5045609;28;20020;-83
2022/09/11 00:03:58;;;;;;;3.85;3.30;;;;;;;15.18;86.07;98706.97;5064844;28;20174;-84
2022/09/11 00:06:25;;;;;;;4.22;2.95;;;;;;;15.47;84.81;98707.84;5063865;28;20608;-84
2022/09/11 00:08:59;;;;;;;6.93;3.47;;;;;;;15.70;82.66;98708.97;5085891;28;20032;-84
2022/09/11 00:11:26;;;;;;;4.97;3.38;;;;;;;16.00;81.51;98705.94;5057404;28;20047;-84
2022/09/11 00:13:53;;;;;;;3.63;3.33;;;;;;;16.06;80.85;98704.81;5061995;28;20036;-84
2022/09/11 00:16:23;;;;;;;5.30;4.78;;;;;;;15.77;82.33;98703.25;5043947;28;20090;-83
2022/09/11 00:18:49;;;;;;;5.00;3.95;;;;;;;15.74;82.21;98696.56;5037477;28;20029;-84
2022/09/11 00:21:15;;;;;;;7.00;4.05;;;;;;;15.72;81.80;98699.53;5062956;28;20515;-84
2022/09/11 00:23:40;;;;;;;7.38;5.93;;;;;;;15.77;82.06;98700.56;5045951;28;20107;-84
2022/09/11 00:26:06;;;;;;;9.93;7.05;;;;;;;15.26;83.80;98684.06;5064614;28;20434;-82
2022/09/11 00:28:31;;;;;;;6.80;4.10;;;;;;;15.68;82.36;98711.94;5059073;28;20040;-84
2022/09/11 00:31:02;;;;;;;7.47;5.47;;;;;;;15.52;83.07;98701.63;5063686;28;20032;-83
2022/09/11 00:33:28;;;;;;;8.50;6.60;;;;;;;15.54;83.19;98705.63;5058860;28;20460;-84
2022/09/11 00:36:02;;;;;;;5.55;4.85;;;;;;;15.15;84.62;98690.63;5065772;28;20040;-83
2022/09/11 00:38:30;;;;;;;8.02;6.65;;;;;;;15.43;83.36;98703.28;5064344;28;20028;-83
2022/09/11 00:40:58;;;;;;;6.15;5.15;;;;;;;15.63;82.56;98716.56;5058613;28;20028;-83
2022/09/11 00:43:25;;;;;;;7.80;7.00;;;;;;;15.21;83.80;98695.69;5062058;28;20149;-83
2022/09/11 00:46:02;;;;;;;6.13;5.10;;;;;;;15.65;81.56;98684.81;5058654;28;20058;-83
2022/09/11 00:48:33;;;;;;;5.43;4.93;;;;;;;15.87;81.56;98711.22;5057241;28;20439;-84
2022/09/11 00:51:02;;;;;;;5.15;4.65;;;;;;;15.99;80.70;98714.31;5058490;28;20029;-84
2022/09/11 00:53:31;;;;;;;8.05;7.22;;;;;;;15.48;82.18;98687.13;5061315;28;20036;-84
2022/09/11 00:56:02;;;;;;;8.80;5.95;;;;;;;15.61;82.27;98716.06;5065574;28;20024;-83
2022/09/11 00:58:32;;;;;;;9.93;8.73;;;;;;;14.84;86.49;98719.59;5049499;28;20127;-83
2022/09/11 01:00:58;;;;;;;17.38;13.52;;;;;;;13.88;90.85;98708.50;5065373;28;20039;-83
2022/09/11 01:03:24;;;;;;;17.02;13.65;;;;;;;14.00;91.73;98725.88;5061382;28;20029;-83
2022/09/11 01:05:51;;;;;;;20.05;14.07;;;;;;;13.90;92.70;98728.59;5063398;28;20036;-83
2022/09/11 01:08:19;;;;;;;20.65;14.82;;;;;;;13.77;92.30;98704.22;5062089;28;20036;-83
2022/09/11 01:10:51;;;;;;;14.07;10.48;;;;;;;14.20;90.57;98733.88;5062970;28;20102;-83
2022/09/11 01:13:37;;;;;;;9.85;7.68;;;;;;;14.66;88.07;98731.81;5058654;28;20039;-83
2022/09/11 01:16:16;;;;;;;12.27;8.13;;;;;;;14.91;85.95;98736.22;5062030;28;20029;-83
2022/09/11 01:19:07;;;;;;;9.48;7.82;;;;;;;15.44;84.22;98729.13;5057709;28;20031;-84
2022/09/11 01:21:44;;;;;;;7.75;6.75;;;;;;;15.59;82.79;98726.31;5059567;28;20399;-83
2022/09/11 01:24:36;;;;;;;10.82;7.10;;;;;;;15.46;83.33;98721.59;5062315;28;20035;-83
2022/09/11 01:27:22;;;;;;;8.40;7.47;;;;;;;15.65;82.42;98719.78;5068260;28;20036;-83
2022/09/11 01:29:56;;;;;;;14.07;7.47;;;;;;;15.65;82.36;98723.28;5060394;28;20033;-83
2022/09/11 01:32:31;;;;;;;10.63;7.53;;;;;;;15.77;81.35;98714.81;5063277;28;20504;-83
2022/09/11 01:35:05;;;;;;;17.80;13.05;;;;;;;14.93;86.10;98734.88;5079844;28;20031;-83
2022/09/11 01:38:00;;;;;;;10.30;8.38;;;;;;;14.94;85.59;98730.28;5068457;28;20155;-83
2022/09/11 01:40:56;;;;;;;9.45;8.35;;;;;;;15.28;83.80;98700.72;5059761;28;20024;-83
2022/09/11 01:43:29;;;;;;;11.98;10.20;;;;;;;15.41;83.29;98735.03;5065007;28;20519;-83
2022/09/11 01:45:58;;;;;;;13.57;11.20;;;;;;;15.32;83.34;98737.53;5050580;28;20029;-83
2022/09/11 01:48:43;;;;;;;11.38;8.60;;;;;;;15.54;83.06;98745.19;5070245;28;20491;-83
2022/09/11 01:51:15;;;;;;;11.98;9.30;;;;;;;15.53;82.63;98732.81;5066151;28;20066;-83
2022/09/11 01:53:44;;;;;;;18.90;14.75;;;;;;;15.40;83.82;98747.69;5062997;28;20426;-83
2022/09/11 01:56:15;;;;;;;12.10;9.68;;;;;;;15.56;82.77;98740.31;5049113;28;20028;-83
2022/09/11 01:58:43;;;;;;;23.67;15.57;;;;;;;15.28;84.23;98755.31;5061306;28;20392;-83
2022/09/11 02:01:17;;;;;;;12.52;9.68;;;;;;;15.50;82.41;98728.81;5064628;28;20024;-83
2022/09/11 02:04:04;;;;;;;27.90;19.75;;;;;;;14.92;85.17;98733.25;5080460;28;20414;-83
2022/09/11 02:06:35;;;;;;;15.18;10.88;;;;;;;15.44;83.22;98737.22;5066654;28;20024;-84
2022/09/11 02:09:07;;;;;;;12.80;10.80;;;;;;;15.70;81.48;98733.97;5068096;28;20492;-84
2022/09/11 02:11:39;;;;;;;14.30;10.50;;;;;;;15.56;81.17;98726.84;5066208;28;20028;-84
2022/09/11 02:14:20;;;;;;;14.57;11.70;;;;;;;15.65;81.83;98752.06;5064886;28;20040;-84
2022/09/11 02:17:14;;;;;;;16.40;13.38;;;;;;;15.58;82.69;98762.34;5062824;28;20117;-83
2022/09/11 02:19:39;;;;;;;16.65;12.60;;;;;;;15.53;81.86;98738.97;5062381;28;20024;-83
2022/09/11 02:22:06;;;;;;;19.08;13.68;;;;;;;15.43;82.16;98749.00;5064478;28;20609;-83
2022/09/11 02:24:32;;;;;;;20.08;14.38;;;;;;;15.33;83.10;98757.16;5062260;28;20063;-83
2022/09/11 02:27:01;;;;;;;19.63;14.07;;;;;;;15.71;81.34;98762.50;5064931;28;20480;-83
2022/09/11 02:29:27;;;;;;;19.27;14.40;;;;;;;15.71;81.76;98767.06;5062151;28;20029;-84
2022/09/11 02:31:54;;;;;;;15.85;13.48;;;;;;;15.69;81.72;98786.22;5065009;28;20090;-83
2022/09/11 02:34:28;;;;;;;21.35;15.27;;;;;;;15.61;82.79;98780.63;5041901;28;20043;-83
2022/09/11 02:37:15;;;;;;;18.98;14.48;;;;;;;15.47;83.09;98783.16;5046380;28;20472;-83
2022/09/11 02:39:56;;;;;;;22.55;16.75;;;;;;;15.44;83.38;98781.03;5065728;28;20120;-83
2022/09/11 02:42:40;;;;;;;22.17;17.48;;;;;;;15.65;82.96;98781.66;5065444;28;20027;-83
2022/09/11 02:45:12;;;;;;;31.25;21.17;;;;;;;15.32;83.78;98769.00;5061799;28;20040;-83
2022/09/11 02:47:46;;;;;;;21.48;15.82;;;;;;;15.36;83.77;98772.72;5062354;28;20106;-83
2022/09/11 02:50:21;;;;;;;21.15;15.95;;;;;;;15.61;82.83;98796.78;5061062;28;20063;-83
2022/09/11 02:53:03;;;;;;;18.38;14.75;;;;;;;15.58;82.33;98776.63;5060239;28;20044;-84
2022/09/11 02:55:43;;;;;;;18.75;14.60;;;;;;;15.63;82.96;98795.41;5063837;28;20028;-83
2022/09/11 02:58:14;;;;;;;21.13;15.45;;;;;;;15.34;83.95;98782.97;5062799;28;20071;-83
2022/09/11 03:00:40;;;;;;;29.48;20.75;;;;;;;15.28;84.91;98800.22;5075941;28;20362;-83
2022/09/11 03:03:06;;;;;;;23.08;17.00;;;;;;;15.54;82.27;98777.47;5062590;28;20035;-83
2022/09/11 03:05:31;;;;;;;20.88;16.35;;;;;;;15.43;83.40;98790.19;5062102;28;20365;-83
2022/09/11 03:07:58;;;;;;;23.20;17.40;;;;;;;15.67;82.25;98790.25;5064066;28;20050;-83
2022/09/11 03:10:26;;;;;;;19.85;15.57;;;;;;;15.61;82.65;98799.47;5027519;28;20511;-83
2022/09/11 03:12:53;;;;;;;23.30;16.88;;;;;;;15.71;82.18;98800.19;5063791;28;20387;-83
2022/09/11 03:15:19;;;;;;;19.40;15.43;;;;;;;15.77;82.06;98807.13;5027443;28;20130;-83
2022/09/11 03:17:45;;;;;;;19.45;15.40;;;;;;;15.77;81.76;98810.91;5067506;28;20033;-83
2022/09/11 03:20:10;;;;;;;22.10;14.98;;;;;;;15.65;81.99;98798.63;5060920;28;20036;-84
2022/09/11 03:22:35;;;;;;;22.13;15.65;;;;;;;15.68;82.35;98818.78;5034784;28;20056;-83
2022/09/11 03:25:01;;;;;;;20.70;15.63;;;;;;;15.85;81.93;98815.66;5041090;28;20028;-84
2022/09/11 03:27:27;;;;;;;24.55;18.80;;;;;;;15.68;82.31;98814.19;5066651;28;20604;-83
2022/09/11 03:29:52;;;;;;;28.90;20.30;;;;;;;15.42;83.12;98795.84;5047243;28;20523;-84
2022/09/11 03:32:17;;;;;;;28.48;20.25;;;;;;;14.99;85.71;98813.56;5043213;28;20020;-82
2022/09/11 03:34:43;;;;;;;28.33;21.17;;;;;;;15.12;84.79;98818.34;5051481;28;20020;-82
2022/09/11 03:37:08;;;;;;;22.83;17.40;;;;;;;15.28;83.26;98806.41;5051770;28;20403;-82
2022/09/11 03:39:34;;;;;;;21.58;16.55;;;;;;;15.06;83.52;98786.38;5065372;28;20476;-82
2022/09/11 03:41:59;;;;;;;27.05;21.30;;;;;;;15.24;83.91;98815.31;5071084;28;20090;-82
2022/09/11 03:44:26;;;;;;;29.92;22.83;;;;;;;14.78;86.86;98829.03;5046457;28;20195;-82
2022/09/11 03:46:52;;;;;;;19.00;14.20;;;;;;;15.30;83.77;98815.00;5060501;28;20028;-82
2022/09/11 03:49:19;;;;;;;18.17;14.40;;;;;;;15.17;83.59;98814.81;5071960;28;20039;-83
2022/09/11 03:51:46;;;;;;;18.25;15.10;;;;;;;15.35;83.41;98830.31;5052673;28;20115;-83
2022/09/11 03:54:14;;;;;;;33.22;23.45;;;;;;;14.81;85.66;98819.56;5072921;28;20086;-83
2022/09/11 03:56:39;;;;;;;17.52;14.30;;;;;;;14.83;86.49;98822.81;5056459;28;20055;-83
2022/09/11 03:59:05;;;;;;;25.15;19.65;;;;;;;15.17;83.85;98825.56;5073250;28;20060;-83
2022/09/11 04:01:30;;;;;;;30.48;20.20;;;;;;;15.24;83.65;98831.44;5063160;28;20037;-84
2022/09/11 04:03:56;;;;;;;19.73;15.05;;;;;;;15.24;83.87;98826.88;5060022;28;20116;-83
2022/09/11 04:06:22;;;;;;;21.45;15.10;;;;;;;15.00;85.28;98836.69;5059365;28;20051;-83
2022/09/11 04:08:48;;;;;;;19.52;14.63;;;;;;;15.41;83.87;98835.38;5057190;28;20163;-83
2022/09/11 04:11:13;;;;;;;18.95;13.80;;;;;;;15.57;81.96;98817.25;5055451;28;20025;-83
2022/09/11 04:13:40;;;;;;;21.08;13.77;;;;;;;15.67;81.75;98819.84;5059515;28;20054;-83
2022/09/11 04:16:13;;;;;;;18.98;14.27;;;;;;;15.62;81.59;98801.88;5059548;28;20480;-83
2022/09/11 04:18:40;;;;;;;30.23;23.30;;;;;;;15.38;82.87;98835.09;5049742;28;20039;-83
2022/09/11 04:21:08;;;;;;;18.75;14.18;;;;;;;15.33;83.20;98843.22;5066968;28;20404;-83
2022/09/11 04:23:33;;;;;;;19.42;14.38;;;;;;;15.42;83.15;98828.09;5051876;28;20388;-83
2022/09/11 04:25:59;;;;;;;17.52;13.55;;;;;;;15.27;82.49;98823.63;5054227;28;20039;-83
2022/09/11 04:28:30;;;;;;;22.73;15.20;;;;;;;15.68;81.87;98837.63;5049709;28;20025;-83
2022/09/11 04:30:56;;;;;;;30.83;22.55;;;;;;;15.23;82.84;98838.72;5047184;28;20033;-83
2022/09/11 04:33:23;;;;;;;34.20;21.45;;;;;;;14.87;85.17;98851.53;5055704;28;20036;-83
2022/09/11 04:35:49;;;;;;;42.72;26.85;;;;;;;14.15;89.38;98838.56;5052322;28;20032;-83
2022/09/11 04:38:14;;;;;;;37.28;25.48;;;;;;;14.16;88.31;98816.03;5029481;28;20040;-83
2022/09/11 04:40:39;;;;;;;36.28;24.55;;;;;;;14.55;86.81;98840.38;5064863;28;20033;-83
2022/09/11 04:43:05;;;;;;;41.90;28.05;;;;;;;13.93;90.68;98835.41;5065022;28;20043;-83
2022/09/11 04:45:32;;;;;;;26.88;18.40;;;;;;;14.42;88.53;98842.84;5047038;28;20129;-83
2022/09/11 04:48:00;;;;;;;22.77;17.17;;;;;;;14.75;85.63;98821.50;5059633;28;20064;-83
2022/09/11 04:50:30;;;;;;;20.25;14.75;;;;;;;15.27;83.66;98847.00;5066488;28;20037;-84
2022/09/11 04:52:57;;;;;;;20.50;14.65;;;;;;;15.53;82.52;98853.88;5069463;28;20477;-83
2022/09/11 04:55:23;;;;;;;29.63;22.33;;;;;;;15.25;83.12;98841.09;5064467;28;21201;-83
2022/09/11 04:57:49;;;;;;;35.42;24.75;;;;;;;14.49;87.24;98857.59;5066740;28;20053;-83
2022/09/11 05:00:15;;;;;;;21.08;15.35;;;;;;;15.33;82.81;98830.56;5063070;28;20554;-84
2022/09/11 05:02:40;;;;;;;25.67;19.00;;;;;;;15.31;82.33;98848.09;5060818;28;20045;-84
2022/09/11 05:05:08;;;;;;;21.63;16.25;;;;;;;15.47;82.79;98844.22;5054156;28;20103;-83
2022/09/11 05:07:34;;;;;;;21.20;14.68;;;;;;;15.38;82.65;98853.94;5066654;28;20452;-83
2022/09/11 05:10:00;;;;;;;30.40;19.40;;;;;;;15.30;82.41;98851.84;5035661;28;20021;-83
2022/09/11 05:12:26;;;;;;;37.83;25.25;;;;;;;14.34;86.67;98827.28;5065514;28;20024;-84
2022/09/11 05:14:52;;;;;;;21.98;15.52;;;;;;;14.83;86.04;98865.81;5058073;28;20572;-83
2022/09/11 05:17:17;;;;;;;32.53;22.65;;;;;;;14.91;84.88;98865.22;5059854;28;20033;-84
2022/09/11 05:19:42;;;;;;;19.67;14.50;;;;;;;14.86;84.85;98843.75;5048409;28;20042;-84
2022/09/11 05:22:08;;;;;;;23.42;17.20;;;;;;;15.26;83.17;98869.63;5063726;28;20062;-84
2022/09/11 05:24:33;;;;;;;22.33;15.40;;;;;;;15.45;82.33;98859.84;5064331;28;20024;-84
2022/09/11 05:26:59;;;;;;;22.23;15.35;;;;;;;15.68;81.33;98881.47;5049477;28;20397;-84
2022/09/11 05:29:30;;;;;;;20.23;14.68;;;;;;;15.57;81.25;98884.53;5052169;28;20028;-84
2022/09/11 05:31:57;;;;;;;20.15;14.68;;;;;;;15.55;81.47;98898.22;5051656;28;20033;-84
2022/09/11 05:34:23;;;;;;;20.50;15.50;;;;;;;15.53;81.67;98896.94;5061478;28;20032;-84
2022/09/11 05:36:48;;;;;;;21.88;15.77;;;;;;;15.50;81.51;98882.16;5046037;28;20158;-84
2022/09/11 05:39:14;;;;;;;22.85;17.10;;;;;;;15.40;82.08;98884.84;5059668;28;20396;-84
2022/09/11 05:41:39;;;;;;;21.50;15.73;;;;;;;15.38;82.43;98896.97;5070130;28;20059;-84
2022/09/11 05:44:05;;;;;;;20.55;15.70;;;;;;;15.13;83.51;98887.16;5066187;28;20039;-84
2022/09/11 05:46:30;;;;;;;23.30;17.90;;;;;;;15.10;83.69;98900.34;5049503;28;20074;-83
2022/09/11 05:48:56;;;;;;;22.02;16.17;;;;;;;15.21;82.77;98894.66;5065463;28;20029;-83
2022/09/11 05:51:21;;;;;;;21.77;16.83;;;;;;;15.39;82.28;98895.91;5057619;28;20033;-83
2022/09/11 05:53:51;;;;;;;21.92;15.25;;;;;;;15.47;82.72;98923.03;5041538;28;20488;-83
2022/09/11 05:56:20;;;;;;;23.38;15.88;;;;;;;15.41;82.69;98916.06;5070681;28;20059;-82
2022/09/11 05:58:46;;;;;;;28.30;20.40;;;;;;;15.21;83.74;98931.47;5060563;28;20033;-83
2022/09/11 06:01:14;;;;;;;31.40;21.58;;;;;;;15.23;83.70;98940.06;5056444;28;20115;-83
2022/09/11 06:03:41;;;;;;;24.23;17.33;;;;;;;15.47;82.21;98933.00;5065807;28;20174;-83
2022/09/11 06:06:08;;;;;;;26.85;18.52;;;;;;;15.02;84.32;98932.13;5049321;28;20060;-84
2022/09/11 06:08:34;;;;;;;27.40;19.00;;;;;;;15.04;84.98;98950.66;5048989;28;20025;-83
2022/09/11 06:11:01;;;;;;;31.38;20.88;;;;;;;14.72;85.50;98908.00;5055312;28;20431;-84
2022/09/11 06:13:32;;;;;;;33.40;22.35;;;;;;;14.90;85.73;98950.44;5059593;28;20033;-84
2022/09/11 06:15:58;;;;;;;32.58;21.42;;;;;;;14.68;86.37;98952.63;5063583;28;20041;-83
2022/09/11 06:18:24;;;;;;;30.88;21.63;;;;;;;14.92;85.53;98961.69;5058600;28;20126;-83
2022/09/11 06:20:56;;;;;;;31.45;20.90;;;;;;;14.81;85.86;98965.50;5065291;28;20484;-82
2022/09/11 06:23:21;;;;;;;26.88;19.10;;;;;;;15.02;85.93;98972.44;5061649;28;20336;-82
2022/09/11 06:25:47;;;;;;;28.70;17.73;;;;;;;15.15;84.69;98964.84;5066137;28;20035;-82
2022/09/11 06:28:13;;;;;;;29.38;19.55;;;;;;;15.30;83.87;98951.34;5066313;28;20480;-83
2022/09/11 06:30:39;;;;;;;20.70;16.02;;;;;;;15.15;84.43;98956.78;5037959;28;20485;-83
2022/09/11 06:33:05;;;;;;;21.55;16.55;;;;;;;15.70;81.84;98956.53;5039718;28;20097;-83
2022/09/11 06:35:30;;;;;;;22.45;17.98;;;;;;;15.48;82.85;98956.94;5064273;28;20131;-83
2022/09/11 06:37:56;;;;;;;24.83;17.10;;;;;;;15.35;83.19;98951.34;5064511;28;20063;-83
2022/09/11 06:40:21;;;;;;;21.75;16.25;;;;;;;15.63;82.62;98978.38;5052053;28;20063;-83
2022/09/11 06:42:47;;;;;;;32.40;22.23;;;;;;;15.51;83.49;98988.66;5049014;28;20036;-83
2022/09/11 06:45:12;;;;;;;31.50;22.00;;;;;;;14.94;85.82;98983.75;5047555;28;20028;-83
2022/09/11 06:47:37;;;;;;;23.90;16.73;;;;;;;15.10;85.85;98989.06;5066158;28;20028;-83
2022/09/11 06:50:03;;;;;;;29.58;20.90;;;;;;;15.15;85.50;98994.44;5064934;28;20031;-83
2022/09/11 06:52:33;;;;;;;34.60;22.98;;;;;;;15.19;84.81;98993.63;5063504;28;20646;-83
2022/09/11 06:54:58;;;;;;;21.73;15.85;;;;;;;15.48;83.81;98978.47;5064249;28;20384;-83
2022/09/11 06:57:24;;;;;;;25.02;17.55;;;;;;;15.53;83.54;98985.72;5059973;28;20032;-82
2022/09/11 06:59:51;;;;;;;24.15;16.75;;;;;;;15.72;83.32;99000.13;5061787;28;20169;-82
2022/09/11 07:02:16;;;;;;;35.58;23.08;;;;;;;15.29;84.65;98990.88;5044807;28;20060;-82
2022/09/11 07:04:42;;;;;;;24.27;17.55;;;;;;;15.40;84.69;99007.78;5056186;28;20234;-83
2022/09/11 07:07:07;;;;;;;26.48;18.75;;;;;;;15.31;84.48;98998.69;5056899;28;20039;-83
2022/09/11 07:09:32;;;;;;;26.33;17.95;;;;;;;15.23;85.30;98993.84;5033719;28;20423;-83
2022/09/11 07:11:58;;;;;;;25.52;17.85;;;;;;;15.69;83.02;98996.09;5031261;28;20028;-83
2022/09/11 07:14:23;;;;;;;34.10;22.73;;;;;;;15.14;84.84;98996.31;5046501;28;20480;-83
2022/09/11 07:16:54;;;;;;;26.98;18.00;;;;;;;15.35;83.97;98979.03;5062135;28;20119;-83
2022/09/11 07:19:20;;;;;;;39.15;25.13;;;;;;;14.89;86.90;99002.59;5061349;28;20087;-83
2022/09/11 07:21:45;;;;;;;32.13;21.40;;;;;;;14.95;85.99;98979.97;5070018;28;20012;-83
2022/09/11 07:24:12;;;;;;;27.83;17.85;;;;;;;15.62;83.60;98992.91;5055899;28;20040;-82
2022/09/11 07:26:37;;;;;;;28.45;20.05;;;;;;;15.64;83.64;99008.75;5059576;28;20057;-83
2022/09/11 07:29:02;;;;;;;31.42;20.35;;;;;;;15.56;83.67;98985.13;5059796;28;20048;-82
2022/09/11 07:31:29;;;;;;;27.98;18.70;;;;;;;15.70;82.98;99005.78;5061463;28;20041;-83
2022/09/11 07:33:55;;;;;;;30.75;21.92;;;;;;;15.66;83.58;99007.41;5062660;28;20031;-83
2022/09/11 07:36:30;;;;;;;24.58;16.95;;;;;;;16.05;82.33;99009.34;5065222;28;20036;-82
2022/09/11 07:38:56;;;;;;;25.02;16.98;;;;;;;16.18;80.73;99006.84;5052628;28;20068;-82
2022/09/11 07:41:23;;;;;;;29.00;19.08;;;;;;;16.27;81.04;99013.19;5058883;28;20067;-82
2022/09/11 07:43:54;;;;;;;24.88;17.67;;;;;;;16.43;80.11;99003.94;5081705;28;20036;-82
2022/09/11 07:46:20;;;;;;;28.33;20.20;;;;;;;15.90;82.36;98987.91;5043837;28;20112;-82
2022/09/11 07:48:46;;;;;;;21.48;15.48;;;;;;;16.10;81.11;99014.69;5058311;28;20123;-81
2022/09/11 07:51:14;;;;;;;29.33;20.83;;;;;;;15.94;82.28;99013.19;5062712;28;20025;-81
2022/09/11 07:53:44;;;;;;;22.67;17.20;;;;;;;16.23;81.35;99022.94;5054303;28;20031;-81
2022/09/11 07:56:16;;;;;;;23.88;17.85;;;;;;;16.39;79.91;98999.38;5067685;28;20252;-82
2022/09/11 07:58:42;;;;;;;22.60;17.10;;;;;;;16.46;79.67;99014.16;5062026;28;20026;-81
2022/09/11 08:01:14;;;;;;;28.20;20.90;;;;;;;16.29;81.14;99031.81;5061946;28;20039;-81
2022/09/11 08:03:41;;;;;;;31.58;21.55;;;;;;;16.35;79.75;99025.28;5044913;28;20024;-81
2022/09/11 08:06:12;;;;;;;25.35;17.83;;;;;;;16.67;78.64;99030.97;5051104;28;20028;-81
2022/09/11 08:08:38;;;;;;;24.55;18.67;;;;;;;16.54;79.29;99030.81;5061161;28;20024;-81
2022/09/11 08:11:12;;;;;;;27.83;20.25;;;;;;;16.49;79.05;99005.47;5062329;28;20028;-81
2022/09/11 08:13:38;;;;;;;25.15;17.98;;;;;;;16.40;79.53;99025.25;5061288;28;20480;-80
2022/09/11 08:16:04;;;;;;;24.08;17.38;;;;;;;16.18;79.94;99020.31;5047751;28;20037;-81
2022/09/11 08:18:30;;;;;;;23.40;16.77;;;;;;;16.48;79.18;99032.72;5063736;28;20118;-82
2022/09/11 08:21:07;;;;;;;27.30;19.30;;;;;;;16.45;79.57;99046.75;5032127;28;20313;-81
2022/09/11 08:23:34;;;;;;;20.92;17.42;;;;;;;16.43;79.00;99036.25;5058081;28;20035;-81
2022/09/11 08:26:20;;;;;;;22.35;17.05;;;;;;;16.40;80.02;99054.88;5064555;28;20040;-81
2022/09/11 08:28:48;;;;;;;24.42;19.88;;;;;;;16.41;79.51;99046.50;5057034;28;20055;-83
2022/09/11 08:31:13;;;;;;;26.38;18.25;;;;;;;16.50;78.76;99049.44;5055261;28;20516;-81
2022/09/11 08:33:39;;;;;;;20.80;17.33;;;;;;;16.57;78.78;99051.81;5042637;28;20090;-81
2022/09/11 08:36:08;;;;;;;20.90;15.40;;;;;;;16.71;78.22;99063.56;5063533;28;20127;-81
2022/09/11 08:38:35;;;;;;;21.50;16.77;;;;;;;16.49;79.24;99055.88;5071491;28;20020;-81
2022/09/11 08:41:10;;;;;;;21.95;17.23;;;;;;;16.55;78.77;99072.84;5062357;28;20029;-80
2022/09/11 08:43:43;;;;;;;17.10;15.30;;;;;;;16.73;78.10;99070.25;5072471;28;20051;-81
2022/09/11 08:46:10;;;;;;;18.98;16.02;;;;;;;16.46;78.92;99049.19;5046395;28;20444;-81
2022/09/11 08:48:59;;;;;;;21.70;17.65;;;;;;;16.32;80.10;99044.69;5070482;28;20158;-81
2022/09/11 08:51:25;;;;;;;17.40;14.65;;;;;;;16.60;79.00;99056.66;5063969;28;20036;-81
2022/09/11 08:53:53;;;;;;;22.15;18.35;;;;;;;16.67;78.54;99062.50;5064662;28;20481;-81
2022/09/11 08:56:22;;;;;;;21.30;18.05;;;;;;;16.85;78.26;99073.41;5054983;28;20037;-81
2022/09/11 08:59:09;;;;;;;18.65;14.75;;;;;;;16.68;78.05;99064.13;5071866;28;20097;-81
2022/09/11 09:01:47;;;;;;;21.75;16.80;;;;;;;16.83;78.42;99074.78;5068468;28;20477;-81
2022/09/11 09:04:42;;;;;;;20.17;15.98;;;;;;;16.68;78.11;99069.50;5068462;28;20063;-81
2022/09/11 09:07:32;;;;;;;19.08;15.52;;;;;;;16.77;77.87;99057.03;5070481;28;20029;-81
2022/09/11 09:10:12;;;;;;;19.23;15.93;;;;;;;16.69;79.20;99076.50;5073765;28;20433;-80
2022/09/11 09:12:57;;;;;;;16.92;14.85;;;;;;;16.73;78.03;99056.00;5077029;28;20060;-80
2022/09/11 09:15:45;;;;;;;22.75;17.35;;;;;;;16.77;77.96;99060.53;5066323;28;20032;-81
2022/09/11 09:18:37;;;;;;;25.55;18.65;;;;;;;16.59;79.63;99085.47;5062822;28;20054;-81
2022/09/11 09:21:23;;;;;;;19.88;16.63;;;;;;;16.62;78.91;99089.50;5058208;28;20056;-81
2022/09/11 09:23:56;;;;;;;;;;;;;;;16.53;80.09;99088.50;5082742;28;20085;-81
2022/09/11 09:26:38;;;;;;;19.05;14.73;;;;;;;16.69;79.25;99076.50;5048685;28;19951;-80
2022/09/11 09:29:13;;;;;;;18.65;13.10;;;;;;;16.94;78.34;99081.69;5060618;28;20021;-80
2022/09/11 09:31:40;;;;;;;17.63;15.55;;;;;;;16.96;78.25;99085.72;5060139;28;20040;-80
2022/09/11 09:34:18;;;;;;;16.17;13.13;;;;;;;17.01;78.51;99093.75;5058557;28;20573;-80
2022/09/11 09:37:21;;;;;;;15.82;13.65;;;;;;;17.06;78.06;99098.28;5058294;28;20044;-80
2022/09/11 09:39:47;;;;;;;15.32;13.45;;;;;;;16.91;78.52;99074.16;5067694;28;20032;-80
2022/09/11 09:42:19;;;;;;;16.45;14.18;;;;;;;16.89;79.02;99092.50;5058982;28;20028;-80
2022/09/11 09:45:36;;;;;;;25.20;18.30;;;;;;;16.89;78.87;99093.31;5062702;28;20028;-79
2022/09/11 09:48:02;;;;;;;17.63;13.45;;;;;;;16.88;78.73;99082.81;4966336;28;20436;-79
2022/09/11 09:50:32;;;;;;;18.55;15.60;;;;;;;16.86;79.51;99095.78;4961871;28;20967;-79
2022/09/11 09:53:26;;;;;;;16.95;14.20;;;;;;;16.70;80.43;99097.81;5026146;28;20699;-79
2022/09/11 09:55:53;;;;;;;22.30;17.20;;;;;;;16.77;79.30;99100.16;5063403;28;20028;-80
2022/09/11 09:58:25;;;;;;;16.80;13.68;;;;;;;16.87;79.00;99098.19;5064883;28;20097;-80
2022/09/11 10:00:51;;;;;;;13.82;12.43;;;;;;;17.11;78.78;99109.03;5031788;28;20542;-79
2022/09/11 10:03:20;;;;;;;22.70;15.60;;;;;;;16.85;79.19;99086.88;5064815;28;20166;-80
2022/09/11 10:05:47;;;;;;;21.73;16.92;;;;;;;17.20;78.17;99118.94;5054352;28;20573;-80
2022/09/11 10:08:28;;;;;;;19.45;14.13;;;;;;;17.28;79.74;99106.69;5040711;28;20124;-80
2022/09/11 10:10:59;;;;;;;17.80;12.73;;;;;;;17.24;78.22;99089.47;5060540;28;20469;-80
2022/09/11 10:13:28;;;;;;;15.40;13.40;;;;;;;17.42;78.53;99098.72;5042540;28;20404;-80
2022/09/11 10:15:59;;;;;;;16.65;13.05;;;;;;;17.43;77.98;99101.13;5057121;28;20179;-80
2022/09/11 10:18:28;;;;;;;13.43;12.05;;;;;;;17.70;76.61;99114.91;5043534;28;20028;-80
2022/09/11 10:21:12;;;;;;;17.00;11.90;;;;;;;17.53;77.95;99095.66;5054747;28;20415;-79
2022/09/11 10:23:55;;;;;;;19.85;14.57;;;;;;;17.62;77.15;99109.34;5050711;28;21987;-80
2022/09/11 10:26:34;;;;;;;20.63;13.70;;;;;;;17.88;76.06;99110.63;5056635;28;20712;-80
2022/09/11 10:29:14;;;;;;;12.48;10.57;;;;;;;17.77;76.26;99098.34;5025363;28;20028;-80
2022/09/11 10:31:46;;;;;;;12.77;11.20;;;;;;;17.91;76.27;99110.03;5060337;28;20027;-79
2022/09/11 10:34:16;;;;;;;16.67;12.63;;;;;;;17.94;75.19;99091.38;5048826;28;20024;-79
2022/09/11 10:36:54;;;;;;;21.83;14.60;;;;;;;17.88;75.73;99094.44;5063127;28;21884;-79
2022/09/11 10:39:22;;;;;;;14.75;12.23;;;;;;;18.21;75.21;99112.38;5067196;28;20031;-79
2022/09/11 10:41:50;;;;;;;16.10;12.77;;;;;;;18.25;75.54;99112.56;5051971;28;20056;-79
2022/09/11 10:44:16;;;;;;;15.05;12.32;;;;;;;18.40;75.35;99094.25;5068646;28;20024;-79
2022/09/11 10:46:44;;;;;;;11.40;10.25;;;;;;;18.63;73.51;99098.00;5060035;28;20119;-79
2022/09/11 10:49:20;;;;;;;14.65;12.23;;;;;;;18.60;73.97;99114.78;5058506;28;20037;-79
2022/09/11 10:52:01;;;;;;;18.73;13.95;;;;;;;18.40;73.46;99112.34;5051294;28;20527;-79
2022/09/11 10:54:36;;;;;;;17.70;14.27;;;;;;;18.13;75.93;99114.91;5064878;28;20489;-79
2022/09/11 10:57:20;;;;;;;21.70;16.15;;;;;;;17.74;77.99;99120.53;5059405;28;20446;-80
2022/09/11 11:00:00;;;;;;;23.60;15.52;;;;;;;16.93;79.91;99124.00;5060670;28;20037;-79
2022/09/11 11:02:36;;;;;;;26.50;17.83;;;;;;;16.32;82.97;99102.06;5068353;28;20357;-82
2022/09/11 11:05:10;;;;;;;22.90;17.33;;;;;;;16.69;83.46;99125.81;5068288;28;20044;-80
2022/09/11 11:08:23;;;;;;;22.40;14.45;;;;;;;16.87;81.95;99132.44;5057707;28;20330;-80
2022/09/11 11:10:57;;;;;;;27.92;16.52;;;;;;;17.11;81.49;99130.59;5037711;28;20051;-80
2022/09/11 11:13:51;;;;;;;25.77;17.45;;;;;;;16.74;81.93;99135.75;5062028;28;20024;-80
2022/09/11 11:16:24;;;;;;;29.17;16.85;;;;;;;17.11;81.80;99142.19;5059779;28;20025;-81
2022/09/11 11:19:07;;;;;;;26.30;18.70;;;;;;;16.06;84.91;99130.22;5058549;28;20032;-80
2022/09/11 11:22:05;;;;;;;28.27;18.55;;;;;;;16.72;83.42;99143.34;5064277;28;20040;-80
2022/09/11 11:24:36;;;;;;;24.88;19.70;;;;;;;17.22;81.18;99143.72;5052379;28;20151;-80
2022/09/11 11:27:45;;;;;;;29.60;19.00;;;;;;;16.52;83.93;99133.50;5060905;28;20115;-80
2022/09/11 11:30:18;;;;;;;29.30;18.27;;;;;;;16.48;84.34;99141.31;5060505;28;20021;-80
2022/09/11 11:33:04;;;;;;;26.45;18.05;;;;;;;16.44;84.80;99144.84;5058024;28;20496;-80
2022/09/11 11:35:33;;;;;;;27.85;16.80;;;;;;;16.13;84.92;99149.59;5062361;28;20037;-80
2022/09/11 11:38:41;;;;;;;30.80;19.35;;;;;;;16.06;85.15;99150.97;5061985;28;20470;-80